CYMO

Details ICAO CYMO (YMO)
Name MOOSONEE
Region Canada
Timezone America/Toronto (UTC-5.0)
Plans Departing 9
Arriving 14
Stats Elevation 30 ft / 9 m (AMSL)
Location 51.292095° -80.608276°
Runways 2
Magnetic Variation 12.113° W
Sunrise 2017-12-15 13:22:12 UTC / 2017-12-15 08:22:12 Local
Sunset 2017-12-15 21:15:58 UTC / 2017-12-15 16:15:58 Local
Advertisement - Login to hide

Runways

ID Width Length Bearing (true) Bearing (mag) Surface Threshold Offset Overrun Length
06 100 ft / 30 m 4,004 ft / 1,220 m 43.12° 55.23° Asphalt 0 ft / 0 m 0 ft / 0 m
14 100 ft / 30 m 3,508 ft / 1,069 m 127.35° 139.46° Dirt 0 ft / 0 m 0 ft / 0 m
24 100 ft / 30 m 4,004 ft / 1,220 m 223.13° 235.24° Asphalt 0 ft / 0 m 0 ft / 0 m
32 100 ft / 30 m 3,508 ft / 1,069 m 307.35° 319.46° Dirt 0 ft / 0 m 0 ft / 0 m

Map

Weather


0- 5 10 15 20 25 30 35+ Temperature / ° C

Clouds and Precipitation
Forecast for 2017-12-16 06:00 UTC. Updated 7 minutes ago

Ground ~20,000 ft ~40,000 ft Winds

METAR

CYMO 160300Z AUTO 24004KT 9SM SCT065 M24/M26 A2989 RMK SLP124

TAF

TAF CYMO 152338Z 1600/1612 25005KT P6SM FEW020 TEMPO 1600/1603 BKN020 FM160300 27005KT P6SM BKN040 TEMPO 1603/1612 BKN020 RMK FCST BASED ON AUTO OBS. NXT FCST BY 160600Z

Frequencies

Recorded 124.80 MHz AWOS
Tower 122.50 MHz MF
Unicom 122.50 MHz CTAF
Warning: Do not use this data for real-world aviation or navigation. No guarantee of current accuracy is given.